Flight Track Log - Related Links

Times and Time Zones

All times are in EDT time to prevent confusion due to time zone crossing. See the EGF3773 flight status page for this flight to view local times or setup timezone preferences in your user account.

Time Position Orientation Groundspeed Altitude Reporting Facility
EDT Latitude Longitude Course Direction KTS MPH feet Rate Location/Type
Tue 08:42:51 PM 39.9333 -104.6667 79° East 239 275 7,900  Level Denver TRACON
Tue 08:43:00 PM 39.9045 -104.3585 80° East  Level FlightAware Approximate
Tue 08:43:45 PM 39.9500 -104.5667 78° East 293 337 9,400  Level Denver TRACON
Tue 08:44:00 PM 39.9312 -104.2039 73° East  Level FlightAware Approximate
Tue 08:44:13 PM 39.9503 -104.5156 90° East 305 351 10,000  Level Denver Center
Tue 08:45:00 PM 39.9662 -104.0518 73° East  Level FlightAware Approximate
Tue 08:45:15 PM 39.9622 -104.3911 83° East 345 397 10,300  Level Denver Center
Tue 08:46:00 PM 39.9884 -103.8982 79° East  Level FlightAware Approximate
Tue 08:46:17 PM 39.9761 -104.2517 83° East 382 440 11,600  Level Denver Center
Tue 08:47:00 PM 40.0197 -103.7455 79° East  Level FlightAware Approximate
Tue 08:47:18 PM 39.9900 -104.0983 83° East 397 457 13,100  Level Denver Center
Tue 08:48:00 PM 40.0412 -103.5952 79° East  Level FlightAware Approximate
Tue 08:48:20 PM 40.0039 -103.9553 83° East 401 461 14,700  Level Denver Center
Tue 08:49:34 PM 40.0172 -103.8078 83° East 409 471 16,100 1,324 Climbing Denver Center
Tue 08:50:36 PM 40.0458 -103.6206 79° East 410 472 17,700 1,463 Climbing Denver Center
Tue 08:51:37 PM 40.0717 -103.4656 78° East 435 501 19,100 1,415 Climbing Denver Center
Tue 08:52:39 PM 40.0964 -103.3106 78° East 437 503 20,600 1,368 Climbing Denver Center
Tue 08:53:53 PM 40.1214 -103.1569 78° East 435 501 22,200 1,412 Climbing Denver Center
Tue 08:54:55 PM 40.1514 -102.9686 78° East 442 509 23,800 1,512 Climbing Denver Center
Tue 08:55:56 PM 40.1750 -102.8081 79° East 449 517 25,300 1,561 Climbing Denver Center
Tue 08:56:58 PM 40.2050 -102.6156 78° East 454 522 27,000 1,171 Climbing Denver Center
Tue 08:57:59 PM 40.2300 -102.4575 78° East 464 534 27,700 732 Climbing Denver Center
Tue 08:59:01 PM 40.2608 -102.2672 78° East 477 549 28,500 968 Climbing Denver Center
Tue 09:00:03 PM 40.2861 -102.0989 79° East 489 563 29,700 1,220 Climbing Denver Center
Tue 09:01:04 PM 40.3092 -101.9333 80° East 485 558 31,000 1,220 Climbing Denver Center
Tue 09:02:06 PM 40.3369 -101.7422 79° East 478 550 32,200 1,073 Climbing Denver Center
Tue 09:03:07 PM 40.3614 -101.5789 79° East 478 550 33,200 829 Climbing Denver Center
Tue 09:04:09 PM 40.3892 -101.3856 79° East 483 556 33,900 581 Climbing Denver Center
Tue 09:05:11 PM 40.4122 -101.2161 80° East 493 567 34,400 634 Climbing Denver Center
Tue 09:06:12 PM 40.4400 -101.0172 80° East 498 573 35,200 829 Climbing Denver Center
Tue 09:07:14 PM 40.4792 -100.8547 72° East 493 567 36,100 871 Climbing Denver Center
Tue 09:08:16 PM 40.5456 -100.6783 64° Northeast 487 560 37,000 400 Climbing Denver Center
Tue 09:09:29 PM 40.6014 -100.5253 64° Northeast 490 564 37,000  Level Denver Center
Tue 09:10:31 PM 40.6792 -100.3158 64° Northeast 504 580 37,000  Level Denver Center
Tue 09:11:33 PM 40.7386 -100.1544 64° Northeast 512 589 37,000  Level Denver Center
Tue 09:12:35 PM 40.8072 -99.9661 64° Northeast 514 592 37,000  Level Denver Center
Tue 09:13:36 PM 40.8611 -99.8172 64° Northeast 509 586 37,000 98 Level Denver Center
Tue 09:14:38 PM 40.9336 -99.6158 64° Northeast 506 582 37,200 288 Climbing Denver Center
Tue 09:15:20 PM 40.9694 -99.5181 64° Northeast 503 579 37,500 519 Climbing Minneapolis Center
Tue 09:16:22 PM 41.0286 -99.3517 65° Northeast 499 574 38,100 447 Climbing Minneapolis Center
Tue 09:16:54 PM 41.0522 -99.2825 66° East 500 575 38,200 447 Climbing Denver Center
Tue 09:17:56 PM 41.1211 -99.0883 65° Northeast 499 574 38,800 522 Climbing Denver Center
Tue 09:18:26 PM 41.1511 -99.0058 64° Northeast 495 570 39,000 197 Climbing Minneapolis Center
Tue 09:18:57 PM 41.1672 -98.9567 66° East 497 572 39,000  Level Denver Center
Tue 09:19:28 PM 41.2092 -98.8378 65° Northeast 497 572 39,000  Level Minneapolis Center
Tue 09:20:30 PM 41.2664 -98.6683 66° East 500 575 39,000  Level Minneapolis Center
Tue 09:21:32 PM 41.3397 -98.4608 65° Northeast 507 583 39,000  Level Minneapolis Center
Tue 09:22:34 PM 41.3981 -98.2872 66° East 512 589 39,000  Level Minneapolis Center
Tue 09:23:36 PM 41.4550 -98.1131 66° East 513 590 39,000  Level Minneapolis Center
Tue 09:24:38 PM 41.5117 -97.9411 66° East 511 588 39,000  Level Minneapolis Center
Tue 09:25:40 PM 41.5667 -97.7664 67° East 511 588 39,000  Level Minneapolis Center
Tue 09:26:42 PM 41.6236 -97.5894 67° East 513 590 39,000  Level Minneapolis Center
Tue 09:27:44 PM 41.6806 -97.4111 67° East 517 595 39,000  Level Minneapolis Center
Tue 09:28:46 PM 41.7369 -97.2317 67° East 519 597 39,000  Level Minneapolis Center
Tue 09:29:47 PM 41.8053 -97.0175 67° East 520 598 39,000  Level Minneapolis Center
Tue 09:30:49 PM 41.8406 -96.8294 76° East 522 601 39,000  Level Minneapolis Center
Tue 09:31:51 PM 41.8625 -96.6389 81° East 517 595 39,000  Level Minneapolis Center
Tue 09:32:53 PM 41.8864 -96.4453 81° East 521 600 39,000  Level Minneapolis Center
Tue 09:33:54 PM 41.9089 -96.2531 81° East 520 598 39,000  Level Minneapolis Center
Tue 09:34:56 PM 41.9306 -96.0611 81° East 516 594 39,000  Level Minneapolis Center
Tue 09:35:58 PM 41.9522 -95.8711 81° East 513 590 39,000  Level Minneapolis Center
Tue 09:37:00 PM 41.9725 -95.6819 82° East 511 588 39,000  Level Minneapolis Center
Tue 09:38:01 PM 41.9917 -95.4914 82° East 511 588 39,000  Level Minneapolis Center
Tue 09:39:03 PM 42.0156 -95.2636 82° East 511 588 39,000  Level Minneapolis Center
Tue 09:40:04 PM 42.0356 -95.0750 82° East 511 588 39,000  Level Minneapolis Center
Tue 09:41:06 PM 42.0542 -94.8856 82° East 510 587 39,000  Level Minneapolis Center
Tue 09:42:07 PM 42.0739 -94.6972 82° East 509 586 39,000  Level Minneapolis Center
Tue 09:43:09 PM 42.0925 -94.5064 82° East 512 589 39,000  Level Minneapolis Center
Tue 09:44:10 PM 42.1108 -94.3167 83° East 511 588 39,000  Level Minneapolis Center
Tue 09:45:12 PM 42.1292 -94.1289 82° East 508 585 39,000  Level Minneapolis Center
Tue 09:46:13 PM 42.1469 -93.9403 83° East 506 582 39,000  Level Minneapolis Center
Tue 09:47:14 PM 42.1644 -93.7483 83° East 502 578 39,000  Level Minneapolis Center
Tue 09:48:16 PM 42.1817 -93.5636 83° East 502 578 39,000  Level Minneapolis Center
Tue 09:49:17 PM 42.1978 -93.3797 83° East 499 574 39,000  Level Minneapolis Center
Tue 09:50:18 PM 42.2172 -93.1569 83° East 503 579 39,000  Level Minneapolis Center
Tue 09:51:20 PM 42.2336 -92.9736 83° East 501 577 39,000  Level Minneapolis Center
Tue 09:52:21 PM 42.2492 -92.7892 83° East 500 575 39,000 -393 Level Minneapolis Center
Tue 09:53:22 PM 42.2650 -92.6017 83° East 504 580 38,200 -878 Descending Minneapolis Center
Tue 09:54:24 PM 42.2786 -92.4131 84° East 510 587 37,200 -976 Descending Minneapolis Center
Tue 09:55:25 PM 42.2947 -92.2244 83° East 512 589 36,200 -1,082 Descending Minneapolis Center
Tue 09:56:26 PM 42.3114 -91.9964 84° East 515 593 35,000 -1,073 Descending Minneapolis Center
Tue 09:57:28 PM 42.3264 -91.8064 84° East 517 595 34,000 -976 Descending Minneapolis Center
Tue 09:58:29 PM 42.3389 -91.6131 85° East 523 602 33,000 -976 Descending Minneapolis Center
Tue 09:59:31 PM 42.3531 -91.4192 84° East 528 608 32,000 -1,051 Descending Minneapolis Center
Tue 10:00:46 PM 42.3711 -91.1486 85° East 530 610 30,600 -1,051 Descending Chicago Center
Tue 10:01:48 PM 42.3844 -90.9511 85° East 536 617 29,600 -976 Descending Chicago Center
Tue 10:02:49 PM 42.3981 -90.7567 85° East 530 610 28,600 -976 Descending Chicago Center
Tue 10:03:51 PM 42.4139 -90.5744 83° East 501 577 27,600 -976 Descending Chicago Center
Tue 10:04:52 PM 42.4325 -90.3933 82° East 494 568 26,600 -976 Descending Chicago Center
Tue 10:05:54 PM 42.4514 -90.2094 82° East 499 574 25,600 -1,024 Descending Chicago Center
Tue 10:06:55 PM 42.4736 -89.9886 82° East 501 577 24,500 -1,033 Descending Chicago Center
Tue 10:07:56 PM 42.4925 -89.7983 82° East 503 579 23,500 -1,415 Descending Chicago Center
Tue 10:08:58 PM 42.5103 -89.6164 82° East 491 565 21,600 -2,195 Descending Chicago Center
Tue 10:09:59 PM 42.5264 -89.4397 83° East 476 548 19,000 -2,537 Descending Chicago Center
Tue 10:11:01 PM 42.5422 -89.2708 83° East 456 525 16,400 -2,390 Descending Chicago Center
Tue 10:12:02 PM 42.5350 -89.1106 93° East 442 509 14,100 -1,171 Descending Chicago Center
Tue 10:13:04 PM 42.4922 -88.9408 109° East 416 479 14,000 -146 Descending Chicago Center
Tue 10:14:05 PM 42.4525 -88.7942 110° East 416 479 13,800 -590 Descending Chicago Center
Tue 10:15:06 PM 42.4142 -88.6492 110° East 411 473 12,800 -976 Descending Chicago Center
Tue 10:16:08 PM 42.3778 -88.5119 110° East 392 451 11,800 -878 Descending Chicago Center
Tue 10:17:09 PM 42.3328 -88.3817 115° Southeast 385 443 11,000 -393 Descending Chicago Center
Tue 10:18:10 PM 42.2714 -88.2750 128° Southeast 329 379 11,000  Level Chicago Center
Tue 10:19:12 PM 42.2175 -88.1828 128° Southeast 317 365 11,000 -537 Level Chicago Center
Tue 10:20:13 PM 42.1606 -88.1086 136° Southeast 292 336 9,900 -1,069 Descending Chicago Center
Tue 10:20:53 PM 42.1167 -88.0500 135° Southeast 275 316 9,200 -947 Descending Chicago TRACON
Tue 10:21:48 PM 42.1000 -87.9833 109° East 271 312 8,400 -991 Descending Chicago TRACON
Tue 10:22:48 PM 42.1000 -87.8833 90° East 274 315 7,300 -876 Descending Chicago TRACON
Tue 10:23:17 PM 42.0919 -87.8464 106° East 263 303 7,100 -667 Descending Chicago Center
Tue 10:24:18 PM 42.0919 -87.7631 90° East 230 265 6,300 -976 Descending Chicago Center
Tue 10:25:20 PM 42.0925 -87.6822 89° East 219 252 5,100 -1,122 Descending Chicago Center
Tue 10:26:21 PM 42.0847 -87.5922 97° East 217 250 4,000 -537 Descending Chicago Center
Tue 10:27:23 PM 42.0325 -87.5883 177° South 209 241 4,000  Level Chicago Center
Tue 10:28:24 PM 42.0139 -87.6458 246° West 177 204 4,000 -295 Level Chicago Center
Tue 10:29:25 PM 41.9964 -87.7067 249° West 174 200 3,400 -590 Descending Chicago Center

Login

Don't have an account? Register now (free) for customized features, flight alerts, and more!